Time;durP1;ratioP1;P1;durP2;ratioP2;P2;SDS_P1;SDS_P2;PMS_P1;PMS_P2;Temp;Humidity;BMP_temperature;BMP_pressure;BME280_temperature;BME280_humidity;BME280_pressure;Samples;Min_cycle;Max_cycle;Signal;HPM_P1;HPM_P2
2021/11/25 00:00:26;;;;;;;67.60;34.60;;;;;;;-1.14;100.00;100795.25;5074521;28;20048;-70
2021/11/25 00:02:54;;;;;;;70.22;35.35;;;;;;;-1.35;100.00;100796.19;5074775;28;20131;-71
2021/11/25 00:05:22;;;;;;;71.10;34.67;;;;;;;-1.48;100.00;100794.47;5074664;28;20127;-71
2021/11/25 00:07:50;;;;;;;69.03;34.40;;;;;;;-1.51;100.00;100790.13;5074791;28;20536;-71
2021/11/25 00:10:19;;;;;;;70.00;33.85;;;;;;;-1.57;100.00;100790.13;5073573;28;20048;-72
2021/11/25 00:12:48;;;;;;;70.82;34.92;;;;;;;-1.61;100.00;100774.44;5074499;28;20051;-72
2021/11/25 00:15:17;;;;;;;68.50;34.75;;;;;;;-1.67;100.00;100788.41;5074201;28;20067;-70
2021/11/25 00:17:46;;;;;;;70.40;33.95;;;;;;;-1.54;100.00;100782.28;5074434;28;20079;-72
2021/11/25 00:20:15;;;;;;;69.18;35.17;;;;;;;-1.29;100.00;100780.44;5072944;28;20518;-73
2021/11/25 00:22:44;;;;;;;68.07;34.03;;;;;;;-1.25;100.00;100783.94;5074370;28;20040;-78
2021/11/25 00:25:12;;;;;;;68.60;35.80;;;;;;;-1.39;100.00;100783.97;5074193;28;20043;-78
2021/11/25 00:27:41;;;;;;;70.65;34.95;;;;;;;-1.30;100.00;100785.69;5074289;28;20072;-76
2021/11/25 00:30:11;;;;;;;69.10;34.97;;;;;;;-1.51;100.00;100777.03;5074238;28;20041;-76
2021/11/25 00:32:42;;;;;;;70.75;37.08;;;;;;;-1.47;100.00;100780.50;5074300;28;20124;-74
2021/11/25 00:35:12;;;;;;;77.70;37.97;;;;;;;-1.57;100.00;100782.28;5073850;28;20041;-76
2021/11/25 00:37:41;;;;;;;71.15;37.30;;;;;;;-1.69;100.00;100787.53;5075513;28;20044;-76
2021/11/25 00:40:12;;;;;;;72.63;37.25;;;;;;;-1.75;100.00;100793.63;5075824;28;20048;-77
2021/11/25 00:42:40;;;;;;;79.82;38.92;;;;;;;-1.70;100.00;100790.16;5074622;28;20047;-74
2021/11/25 00:45:11;;;;;;;79.85;38.17;;;;;;;-1.66;100.00;100790.13;5074445;28;20127;-74
2021/11/25 00:47:43;;;;;;;75.32;37.67;;;;;;;-1.76;100.00;100791.03;5074502;28;20454;-74
2021/11/25 00:50:14;;;;;;;75.43;36.83;;;;;;;-1.83;100.00;100787.56;5074924;28;20062;-76
2021/11/25 00:52:43;;;;;;;74.78;37.17;;;;;;;-1.87;100.00;100788.44;5074475;28;20098;-76
2021/11/25 00:55:12;;;;;;;76.13;38.28;;;;;;;-1.83;100.00;100794.56;5074469;28;20040;-76
2021/11/25 00:57:41;;;;;;;74.38;38.47;;;;;;;-1.91;100.00;100789.31;5073954;28;20052;-76
2021/11/25 01:00:12;;;;;;;74.07;37.92;;;;;;;-1.83;100.00;100789.31;5074090;28;20097;-74
2021/11/25 01:02:43;;;;;;;79.78;38.60;;;;;;;-1.82;100.00;100786.69;5074177;28;20072;-76
2021/11/25 01:05:13;;;;;;;75.57;39.08;;;;;;;-1.78;100.00;100791.03;5074033;28;20098;-75
2021/11/25 01:07:42;;;;;;;73.20;37.42;;;;;;;-1.83;100.00;100784.09;5073655;28;20448;-76
2021/11/25 01:10:12;;;;;;;76.13;37.22;;;;;;;-1.68;100.00;100780.56;5073814;28;20048;-75
2021/11/25 01:12:41;;;;;;;72.65;36.47;;;;;;;-1.76;100.00;100777.97;5073668;28;20072;-77
2021/11/25 01:15:13;;;;;;;74.35;38.08;;;;;;;-1.76;100.00;100773.59;5089439;28;20051;-74
2021/11/25 01:17:43;;;;;;;79.43;38.47;;;;;;;-1.86;100.00;100769.25;5073595;28;20396;-75
2021/11/25 01:20:14;;;;;;;69.55;38.00;;;;;;;-1.74;100.00;100771.88;5072980;28;20479;-77
2021/11/25 01:22:43;;;;;;;73.88;36.42;;;;;;;-1.76;100.00;100759.66;5073646;28;20466;-77
2021/11/25 01:25:12;;;;;;;75.13;38.72;;;;;;;-1.73;100.00;100750.06;5073445;28;20102;-75
2021/11/25 01:27:40;;;;;;;70.80;36.88;;;;;;;-1.61;100.00;100750.91;5073331;28;20450;-74
2021/11/25 01:30:10;;;;;;;71.82;36.75;;;;;;;-1.58;100.00;100748.28;5073227;28;20044;-75
2021/11/25 01:32:40;;;;;;;67.88;35.83;;;;;;;-1.69;100.00;100734.34;5072428;28;20060;-73
2021/11/25 01:35:10;;;;;;;74.00;37.58;;;;;;;-1.42;100.00;100746.50;5073220;28;20040;-73
2021/11/25 01:37:39;;;;;;;70.35;38.80;;;;;;;-1.38;100.00;100759.53;5072975;28;20094;-73
2021/11/25 01:40:11;;;;;;;74.40;38.53;;;;;;;-1.38;100.00;100746.47;5072864;28;20040;-73
2021/11/25 01:42:40;;;;;;;79.50;37.88;;;;;;;-1.44;100.00;100741.28;5073388;28;20440;-73
2021/11/25 01:45:11;;;;;;;73.10;36.75;;;;;;;-1.22;100.00;100737.69;5073183;28;20482;-75
2021/11/25 01:47:43;;;;;;;71.78;36.33;;;;;;;-1.30;100.00;100744.69;5073125;28;20086;-76
2021/11/25 01:50:15;;;;;;;73.38;35.83;;;;;;;-1.06;100.00;100740.22;5072958;28;20040;-76
2021/11/25 01:52:43;;;;;;;74.15;37.50;;;;;;;-1.34;100.00;100745.59;5073253;28;20079;-76
2021/11/25 01:55:17;;;;;;;75.22;37.67;;;;;;;-1.13;100.00;100746.38;5073142;28;20047;-76
2021/11/25 01:57:49;;;;;;;68.35;36.10;;;;;;;-1.05;100.00;100745.47;5072889;28;20044;-77
2021/11/25 02:00:26;;;;;;;68.45;34.78;;;;;;;-1.02;100.00;100742.81;5072798;28;20090;-76
2021/11/25 02:02:55;;;;;;;69.10;36.40;;;;;;;-1.07;100.00;100738.47;5073057;28;20040;-75
2021/11/25 02:05:26;;;;;;;71.05;36.13;;;;;;;-1.01;100.00;100733.22;5072568;28;20049;-77
2021/11/25 02:07:54;;;;;;;65.75;34.15;;;;;;;-0.80;100.00;100719.97;5072827;28;20044;-76
2021/11/25 02:10:23;;;;;;;68.30;34.03;;;;;;;-0.70;100.00;100705.94;5072691;28;20043;-76
2021/11/25 02:12:52;;;;;;;66.55;34.90;;;;;;;-0.87;100.00;100698.22;5072690;28;20049;-79
2021/11/25 02:15:23;;;;;;;72.32;35.50;;;;;;;-0.84;100.00;100701.69;5072692;28;20452;-79
2021/11/25 02:17:52;;;;;;;67.40;34.05;;;;;;;-0.84;100.00;100694.72;5072538;28;20074;-79
2021/11/25 02:20:20;;;;;;;64.85;35.03;;;;;;;-0.72;100.00;100692.00;5072435;28;20041;-78
2021/11/25 02:22:50;;;;;;;71.65;34.22;;;;;;;-0.74;100.00;100680.66;5072427;28;20521;-79
2021/11/25 02:25:18;;;;;;;66.03;33.92;;;;;;;-0.69;100.00;100676.25;5071267;28;20048;-78
2021/11/25 02:27:46;;;;;;;76.50;36.35;;;;;;;-0.76;100.00;100671.94;5072667;28;20080;-79
2021/11/25 02:30:15;;;;;;;64.68;33.20;;;;;;;-0.69;100.00;100676.25;5072370;28;20433;-79
2021/11/25 02:32:46;;;;;;;67.45;34.05;;;;;;;-0.81;100.00;100673.72;5073946;28;20036;-77
2021/11/25 02:35:16;;;;;;;65.88;34.03;;;;;;;-0.66;100.00;100665.75;5076257;28;20040;-77
2021/11/25 02:37:45;;;;;;;63.97;33.60;;;;;;;-0.55;100.00;100664.81;5076518;28;20430;-77
2021/11/25 02:40:24;;;;;;;71.05;34.95;;;;;;;-0.55;100.00;100657.81;5076352;28;20068;-77
2021/11/25 02:42:55;;;;;;;70.78;35.17;;;;;;;-0.54;100.00;100656.91;5076213;28;20037;-77
2021/11/25 02:45:25;;;;;;;67.55;34.28;;;;;;;-0.47;100.00;100655.13;5076106;28;20040;-77
2021/11/25 02:47:54;;;;;;;73.10;35.60;;;;;;;-0.45;100.00;100642.88;5075938;28;20048;-77
2021/11/25 02:50:24;;;;;;;73.60;36.47;;;;;;;-0.57;100.00;100648.22;5075800;28;20086;-77
2021/11/25 02:52:56;;;;;;;70.72;35.35;;;;;;;-0.46;100.00;100647.25;5075953;28;20086;-76
2021/11/25 02:55:25;;;;;;;67.80;33.63;;;;;;;-0.41;100.00;100645.44;5075483;28;20379;-77
2021/11/25 02:57:53;;;;;;;66.85;32.85;;;;;;;-0.27;100.00;100636.59;5076165;28;20513;-77
2021/11/25 03:00:35;;;;;;;68.38;33.67;;;;;;;-0.33;100.00;100632.25;5075749;28;20532;-76
2021/11/25 03:03:12;;;;;;;70.93;34.05;;;;;;;-0.30;100.00;100629.59;5075828;28;20098;-78
2021/11/25 03:05:43;;;;;;;68.22;33.03;;;;;;;-0.31;100.00;100620.88;5075780;28;20044;-77
2021/11/25 03:08:13;;;;;;;68.05;33.97;;;;;;;-0.37;100.00;100620.94;5075911;28;20037;-77
2021/11/25 03:10:46;;;;;;;65.30;33.20;;;;;;;-0.34;100.00;100617.44;5075521;28;20433;-78
2021/11/25 03:13:17;;;;;;;67.13;33.53;;;;;;;-0.35;100.00;100608.69;5075586;28;20036;-77
2021/11/25 03:15:46;;;;;;;68.97;32.22;;;;;;;-0.16;100.00;100606.75;5075629;28;20040;-78
2021/11/25 03:18:15;;;;;;;70.93;33.85;;;;;;;-0.27;100.00;100608.63;5075739;28;20098;-76
2021/11/25 03:20:45;;;;;;;65.95;33.65;;;;;;;-0.20;100.00;100602.41;5075067;28;20173;-76
2021/11/25 03:23:17;;;;;;;72.10;33.60;;;;;;;-0.28;100.00;100606.88;5075669;28;20049;-76
2021/11/25 03:25:47;;;;;;;69.85;33.75;;;;;;;-0.32;100.00;100605.16;5075451;28;20454;-76
2021/11/25 03:28:17;;;;;;;68.43;34.17;;;;;;;-0.26;100.00;100597.25;5075194;28;20050;-78
2021/11/25 03:30:53;;;;;;;67.90;32.92;;;;;;;-0.21;100.00;100600.66;5075134;28;20052;-78
2021/11/25 03:33:23;;;;;;;63.20;32.58;;;;;;;-0.16;100.00;100584.91;5074976;28;20037;-77
2021/11/25 03:35:51;;;;;;;70.35;34.63;;;;;;;-0.22;100.00;100587.59;5075408;28;20040;-78
2021/11/25 03:38:20;;;;;;;65.13;33.53;;;;;;;-0.28;100.00;100588.53;5074029;28;20062;-78
2021/11/25 03:40:50;;;;;;;70.20;33.88;;;;;;;-0.29;100.00;100592.00;5075233;28;20049;-78
2021/11/25 03:43:18;;;;;;;68.95;34.10;;;;;;;-0.27;100.00;100584.16;5075318;28;20052;-78
2021/11/25 03:45:47;;;;;;;71.95;33.35;;;;;;;-0.21;100.00;100571.84;5075064;28;20508;-78
2021/11/25 03:48:16;;;;;;;65.53;33.13;;;;;;;-0.09;100.00;100573.47;5074849;28;20394;-78
2021/11/25 03:50:44;;;;;;;68.53;33.70;;;;;;;-0.09;100.00;100563.84;5074746;28;20048;-78
2021/11/25 03:53:12;;;;;;;66.93;31.42;;;;;;;-0.03;100.00;100563.75;5075105;28;20098;-78
2021/11/25 03:55:40;;;;;;;63.92;31.75;;;;;;;-0.03;100.00;100562.88;5074322;28;20515;-78
2021/11/25 03:58:10;;;;;;;67.13;33.17;;;;;;;-0.11;100.00;100570.84;5074950;28;20045;-76
2021/11/25 04:00:39;;;;;;;67.18;31.08;;;;;;;0.01;100.00;100555.88;5074263;28;20048;-78
2021/11/25 04:03:07;;;;;;;62.55;31.50;;;;;;;-0.10;100.00;100561.22;5074967;28;20120;-78
2021/11/25 04:05:36;;;;;;;58.35;31.30;;;;;;;-0.05;100.00;100555.03;5074261;28;20515;-78
2021/11/25 04:08:05;;;;;;;60.60;31.08;;;;;;;-0.04;100.00;100561.16;5074374;28;20044;-78
2021/11/25 04:10:33;;;;;;;60.08;30.30;;;;;;;-0.04;100.00;100548.03;5074700;28;20036;-78
2021/11/25 04:13:02;;;;;;;64.18;31.88;;;;;;;-0.09;100.00;100552.50;5074731;28;20135;-78
2021/11/25 04:15:32;;;;;;;58.90;31.70;;;;;;;-0.13;100.00;100550.78;5074273;28;20047;-76
2021/11/25 04:18:00;;;;;;;61.10;30.67;;;;;;;0.02;100.00;100547.13;5074537;28;20056;-76
2021/11/25 04:20:30;;;;;;;64.65;31.73;;;;;;;0.06;100.00;100546.19;5072813;28;20056;-75
2021/11/25 04:22:59;;;;;;;60.90;29.98;;;;;;;0.05;100.00;100536.56;5074317;28;20044;-76
2021/11/25 04:25:27;;;;;;;59.78;29.95;;;;;;;0.16;100.00;100538.16;5074036;28;20432;-75
2021/11/25 04:27:55;;;;;;;65.57;31.08;;;;;;;0.07;100.00;100525.16;5073953;28;20514;-75
2021/11/25 04:30:27;;;;;;;61.10;30.42;;;;;;;0.12;100.00;100514.63;5074302;28;20041;-75
2021/11/25 04:35:43;;;;;;;64.97;30.10;;;;;;;0.08;100.00;100528.66;5073949;28;20041;-79
2021/11/25 04:38:12;;;;;;;64.25;31.25;;;;;;;0.08;100.00;100526.03;5074263;28;20040;-79
2021/11/25 04:40:45;;;;;;;62.67;30.23;;;;;;;0.20;100.00;100525.91;5073885;28;20045;-83
2021/11/25 04:43:15;;;;;;;63.13;31.48;;;;;;;0.17;100.00;100523.28;5074520;28;20059;-82
2021/11/25 04:45:45;;;;;;;58.65;30.35;;;;;;;0.19;100.00;100525.03;5074302;28;20044;-83
2021/11/25 04:48:17;;;;;;;67.43;31.13;;;;;;;0.26;100.00;100524.03;5072868;28;20049;-77
2021/11/25 04:50:46;;;;;;;65.20;32.00;;;;;;;0.24;100.00;100523.19;5073607;28;20048;-78
2021/11/25 04:53:14;;;;;;;61.70;30.98;;;;;;;0.30;100.00;100517.00;5073618;28;20489;-78
2021/11/25 04:55:43;;;;;;;62.20;31.38;;;;;;;0.30;100.00;100519.63;5072672;28;20044;-79
2021/11/25 04:58:11;;;;;;;62.78;30.15;;;;;;;0.43;100.00;100510.69;5073609;28;20402;-76
2021/11/25 05:00:40;;;;;;;56.67;29.90;;;;;;;0.47;100.00;100504.47;5073407;28;20048;-77
2021/11/25 05:03:09;;;;;;;58.55;29.42;;;;;;;0.38;100.00;100502.00;5073380;28;20086;-77
2021/11/25 05:05:39;;;;;;;55.13;29.63;;;;;;;0.51;100.00;100507.94;5073382;28;20048;-77
2021/11/25 05:08:08;;;;;;;62.22;30.83;;;;;;;0.56;100.00;100501.72;5073350;28;20045;-76
2021/11/25 05:10:36;;;;;;;59.38;30.67;;;;;;;0.43;100.00;100500.19;5073188;28;20052;-76
2021/11/25 05:13:05;;;;;;;61.67;30.33;;;;;;;0.35;100.00;100501.19;5073587;28;20040;-79
2021/11/25 05:15:34;;;;;;;57.40;29.27;;;;;;;0.40;100.00;100500.25;5071869;28;20068;-79
2021/11/25 05:18:02;;;;;;;59.40;30.55;;;;;;;0.37;100.00;100495.00;5073060;28;20132;-78
2021/11/25 05:20:31;;;;;;;58.28;29.13;;;;;;;0.58;100.00;100499.09;5073126;28;20058;-76
2021/11/25 05:23:01;;;;;;;58.60;29.02;;;;;;;0.48;100.00;100495.75;5073054;28;20101;-74
2021/11/25 05:25:29;;;;;;;58.00;30.15;;;;;;;0.47;100.00;100499.22;5073307;28;20048;-77
2021/11/25 05:27:58;;;;;;;58.22;29.35;;;;;;;0.55;100.00;100494.75;5073337;28;20044;-76
2021/11/25 05:30:31;;;;;;;63.20;29.85;;;;;;;0.56;100.00;100495.59;5088521;28;20417;-76
2021/11/25 05:33:00;;;;;;;57.20;28.35;;;;;;;0.69;100.00;100486.66;5073356;28;20147;-77
2021/11/25 05:35:29;;;;;;;61.10;29.58;;;;;;;0.80;100.00;100484.72;5072852;28;20050;-75
2021/11/25 05:37:58;;;;;;;57.97;29.05;;;;;;;0.70;100.00;100490.16;5073185;28;20046;-74
2021/11/25 05:40:27;;;;;;;58.13;29.63;;;;;;;0.63;100.00;100492.00;5073188;28;20040;-75
2021/11/25 05:42:55;;;;;;;60.75;30.23;;;;;;;0.69;100.00;100488.44;5073126;28;20409;-75
2021/11/25 05:45:24;;;;;;;56.45;28.05;;;;;;;0.69;100.00;100488.44;5073137;28;20086;-77
2021/11/25 05:47:53;;;;;;;55.08;29.25;;;;;;;0.72;100.00;100488.38;5072421;28;20040;-76
2021/11/25 05:50:24;;;;;;;54.35;28.77;;;;;;;0.62;100.00;100484.16;5072968;28;20474;-75
2021/11/25 05:52:54;;;;;;;57.55;28.38;;;;;;;0.69;100.00;100484.03;5072739;28;20040;-76
2021/11/25 05:55:25;;;;;;;58.80;29.17;;;;;;;0.65;100.00;100474.47;5073060;28;20053;-75
2021/11/25 05:57:55;;;;;;;58.97;29.88;;;;;;;0.72;100.00;100477.88;5072329;28;20057;-77
2021/11/25 06:00:24;;;;;;;56.40;28.70;;;;;;;0.81;100.00;100470.69;5072823;28;20040;-76
2021/11/25 06:02:53;;;;;;;58.97;29.25;;;;;;;0.71;100.00;100474.38;5072637;28;20122;-77
2021/11/25 06:05:23;;;;;;;52.85;29.23;;;;;;;0.72;100.00;100473.47;5072958;28;20052;-76
2021/11/25 06:07:52;;;;;;;55.03;29.15;;;;;;;0.81;100.00;100486.44;5073768;28;20107;-78
2021/11/25 06:10:23;;;;;;;55.85;27.90;;;;;;;0.75;100.00;100480.44;5076776;28;20413;-77
2021/11/25 06:12:52;;;;;;;57.35;28.27;;;;;;;0.89;100.00;100478.47;5076632;28;20044;-77
2021/11/25 06:15:22;;;;;;;58.60;28.85;;;;;;;0.81;100.00;100481.19;5076560;28;20052;-75
2021/11/25 06:17:51;;;;;;;54.95;28.27;;;;;;;0.95;100.00;100470.44;5076607;28;20044;-75
2021/11/25 06:20:21;;;;;;;55.63;28.77;;;;;;;0.91;100.00;100471.41;5077012;28;20297;-75
2021/11/25 06:22:52;;;;;;;62.15;29.92;;;;;;;0.86;100.00;100467.97;5076444;28;20049;-75
2021/11/25 06:25:22;;;;;;;57.83;28.85;;;;;;;0.85;100.00;100468.88;5076641;28;20053;-75
2021/11/25 06:27:51;;;;;;;53.72;27.90;;;;;;;0.89;100.00;100467.94;5075973;28;20044;-76
2021/11/25 06:30:21;;;;;;;61.40;28.95;;;;;;;0.94;100.00;100471.34;5076467;28;20045;-73
2021/11/25 06:32:52;;;;;;;58.35;29.05;;;;;;;0.92;100.00;100477.53;5076257;28;20395;-79
2021/11/25 06:35:22;;;;;;;58.63;28.83;;;;;;;0.97;100.00;100480.94;5076517;28;20397;-79
2021/11/25 06:37:53;;;;;;;51.92;28.08;;;;;;;1.02;100.00;100479.97;5075906;28;20048;-79
2021/11/25 06:40:25;;;;;;;51.05;27.85;;;;;;;1.14;100.00;100474.47;5076314;28;20040;-74
2021/11/25 06:42:54;;;;;;;53.38;27.63;;;;;;;1.09;100.00;100471.09;5075860;28;20899;-74
2021/11/25 06:45:22;;;;;;;55.13;27.95;;;;;;;1.15;100.00;100464.84;5075786;28;20485;-74
2021/11/25 06:47:53;;;;;;;57.70;29.05;;;;;;;1.01;100.00;100461.59;5075724;28;20354;-74
2021/11/25 06:50:24;;;;;;;58.95;28.40;;;;;;;1.12;100.00;100465.78;5075829;28;20041;-75
2021/11/25 06:52:53;;;;;;;57.83;28.95;;;;;;;1.03;100.00;100476.44;5075767;28;20410;-80
2021/11/25 06:55:22;;;;;;;59.67;28.40;;;;;;;1.09;100.00;100470.22;5075699;28;20102;-79
2021/11/25 06:57:51;;;;;;;56.65;27.77;;;;;;;1.20;100.00;100467.41;5074238;28;20102;-79
2021/11/25 07:00:22;;;;;;;57.45;28.33;;;;;;;1.22;100.00;100466.47;5091436;28;20086;-76
2021/11/25 07:02:54;;;;;;;58.40;27.88;;;;;;;1.25;100.00;100465.53;5075437;28;20036;-76
2021/11/25 07:05:23;;;;;;;56.42;28.60;;;;;;;1.27;100.00;100459.38;5075608;28;20052;-75
2021/11/25 07:07:53;;;;;;;57.38;27.77;;;;;;;1.30;100.00;100461.06;5075569;28;20124;-77
2021/11/25 07:10:21;;;;;;;59.15;29.48;;;;;;;1.34;100.00;100460.09;5075490;28;20044;-75
2021/11/25 07:12:50;;;;;;;56.88;28.60;;;;;;;1.35;100.00;100461.84;5075402;28;20048;-75
2021/11/25 07:15:22;;;;;;;67.68;30.25;;;;;;;1.35;100.00;100462.72;5075423;28;20098;-78
2021/11/25 07:17:52;;;;;;;56.47;27.27;;;;;;;1.45;100.00;100452.91;5075206;28;20045;-77
2021/11/25 07:20:20;;;;;;;60.22;29.27;;;;;;;1.47;100.00;100448.47;5075391;28;20051;-78
2021/11/25 07:22:49;;;;;;;63.05;28.90;;;;;;;1.46;100.00;100444.13;5075166;28;20489;-80
2021/11/25 07:25:19;;;;;;;60.70;28.45;;;;;;;1.50;100.00;100440.53;5076004;28;20049;-80
2021/11/25 07:27:47;;;;;;;54.22;27.10;;;;;;;1.33;100.00;100453.97;5075212;28;20049;-80
2021/11/25 07:30:17;;;;;;;61.67;27.73;;;;;;;1.41;100.00;100454.72;5075438;28;20090;-78
2021/11/25 07:32:46;;;;;;;54.67;27.20;;;;;;;1.38;100.00;100452.16;5075099;28;20049;-77
2021/11/25 07:35:19;;;;;;;58.92;28.27;;;;;;;1.44;100.00;100453.78;5075473;28;20123;-77
2021/11/25 07:37:48;;;;;;;56.45;28.25;;;;;;;1.53;100.00;100445.69;5075358;28;20066;-79
2021/11/25 07:40:16;;;;;;;53.70;27.33;;;;;;;1.52;100.00;100443.97;5075403;28;20527;-80
2021/11/25 07:42:45;;;;;;;54.13;27.40;;;;;;;1.55;100.00;100433.41;5075080;28;20047;-74
2021/11/25 07:45:14;;;;;;;56.63;27.17;;;;;;;1.51;100.00;100436.13;5074943;28;20465;-73
2021/11/25 07:47:43;;;;;;;57.30;28.80;;;;;;;1.52;100.00;100435.22;5074691;28;20043;-74
2021/11/25 07:50:14;;;;;;;54.20;26.98;;;;;;;1.66;100.00;100439.31;5075084;28;20043;-74
2021/11/25 07:52:45;;;;;;;59.38;28.48;;;;;;;1.79;100.00;100436.41;5074977;28;20041;-75
2021/11/25 07:55:19;;;;;;;51.85;26.92;;;;;;;1.81;100.00;100422.31;5074766;28;20098;-76
2021/11/25 07:57:49;;;;;;;58.13;28.58;;;;;;;1.75;100.00;100432.13;5074516;28;20065;-76
2021/11/25 08:00:21;;;;;;;59.33;28.98;;;;;;;1.83;100.00;100422.28;5074935;28;20048;-75
2021/11/25 08:02:50;;;;;;;58.67;28.17;;;;;;;1.76;100.00;100410.19;5074496;28;20450;-76
2021/11/25 08:05:20;;;;;;;54.15;26.80;;;;;;;1.89;100.00;100412.50;5074869;28;20050;-76
2021/11/25 08:07:49;;;;;;;55.88;27.30;;;;;;;1.70;100.00;100396.25;5074680;28;20062;-76
2021/11/25 08:10:17;;;;;;;52.25;25.92;;;;;;;1.69;100.00;100388.41;5074254;28;20044;-75
2021/11/25 08:12:46;;;;;;;51.38;26.52;;;;;;;1.96;100.00;100400.97;5074399;28;20482;-76
2021/11/25 08:15:14;;;;;;;59.05;27.98;;;;;;;1.82;100.00;100387.22;5074344;28;20045;-76
2021/11/25 08:17:42;;;;;;;57.25;28.75;;;;;;;1.82;100.00;100384.59;5073614;28;20127;-76
2021/11/25 08:20:12;;;;;;;57.92;26.88;;;;;;;1.95;100.00;100393.97;5074152;28;20048;-76
2021/11/25 08:22:41;;;;;;;57.47;28.02;;;;;;;1.82;100.00;100389.00;5072662;28;20245;-76
2021/11/25 08:25:10;;;;;;;55.00;27.48;;;;;;;1.83;100.00;100382.84;5073843;28;20064;-75
2021/11/25 08:27:39;;;;;;;55.90;26.50;;;;;;;1.92;100.00;100380.00;5073884;28;20068;-76
2021/11/25 08:30:12;;;;;;;56.83;27.70;;;;;;;1.92;100.00;100380.00;5072739;28;20070;-75
2021/11/25 08:32:42;;;;;;;54.35;27.38;;;;;;;1.92;100.00;100380.00;5073671;28;20521;-76
2021/11/25 08:35:11;;;;;;;52.20;27.15;;;;;;;2.14;100.00;100370.72;5073750;28;20421;-76
2021/11/25 08:37:42;;;;;;;52.08;26.67;;;;;;;2.18;100.00;100367.09;5074105;28;20048;-75
2021/11/25 08:40:14;;;;;;;51.75;26.13;;;;;;;2.10;100.00;100362.94;5074021;28;20051;-76
2021/11/25 08:42:44;;;;;;;47.65;26.17;;;;;;;2.23;100.00;100349.44;5073844;28;20501;-75
2021/11/25 08:45:15;;;;;;;49.05;26.38;;;;;;;2.37;100.00;100353.50;5074109;28;20119;-75
2021/11/25 08:47:44;;;;;;;52.17;27.40;;;;;;;2.34;100.00;100345.69;5073990;28;20394;-75
2021/11/25 08:50:18;;;;;;;53.50;27.10;;;;;;;2.38;100.00;100348.19;5073866;28;20086;-76
2021/11/25 08:52:46;;;;;;;50.58;26.80;;;;;;;2.38;100.00;100342.06;5073810;28;20052;-76
2021/11/25 08:55:18;;;;;;;55.72;26.35;;;;;;;2.41;100.00;100349.88;5073677;28;20436;-76
2021/11/25 08:57:46;;;;;;;50.45;25.63;;;;;;;2.35;100.00;100344.78;5073534;28;20076;-76
2021/11/25 09:00:16;;;;;;;56.08;26.23;;;;;;;2.46;100.00;100332.22;5073761;28;20041;-76
2021/11/25 09:02:44;;;;;;;51.42;25.75;;;;;;;2.51;100.00;100322.41;5073846;28;20041;-76
2021/11/25 09:05:13;;;;;;;57.80;27.23;;;;;;;2.61;100.00;100329.19;5073450;28;20040;-76
2021/11/25 09:07:42;;;;;;;47.55;25.85;;;;;;;2.59;100.00;100321.31;5073786;28;20126;-75
2021/11/25 09:10:12;;;;;;;48.95;25.80;;;;;;;2.56;100.00;100316.13;5073482;28;20552;-76
2021/11/25 09:12:45;;;;;;;49.33;25.27;;;;;;;2.58;100.00;100318.72;5073313;28;20036;-75
2021/11/25 09:15:21;;;;;;;51.40;26.17;;;;;;;2.55;100.00;100313.53;5073614;28;20044;-75
2021/11/25 09:17:50;;;;;;;49.08;25.15;;;;;;;2.61;100.00;100313.38;5073034;28;20044;-75
2021/11/25 09:20:30;;;;;;;47.78;24.20;;;;;;;2.66;100.00;100311.47;5073527;28;20051;-75
2021/11/25 09:23:01;;;;;;;50.08;25.48;;;;;;;2.73;100.00;100309.56;5073201;28;20094;-76
2021/11/25 09:25:30;;;;;;;52.10;26.83;;;;;;;2.73;100.00;100297.25;5072932;28;20051;-76
2021/11/25 09:28:02;;;;;;;49.53;25.92;;;;;;;2.85;100.00;100304.81;5072810;28;20043;-76
2021/11/25 09:30:31;;;;;;;48.63;25.42;;;;;;;2.97;100.00;100289.56;5072628;28;20071;-76
2021/11/25 09:32:59;;;;;;;50.83;25.52;;;;;;;3.05;100.00;100293.69;5072546;28;20094;-76
2021/11/25 09:35:28;;;;;;;50.80;25.60;;;;;;;3.12;100.00;100289.13;5073082;28;20041;-76
2021/11/25 09:37:56;;;;;;;46.75;24.65;;;;;;;3.24;100.00;100272.06;5072764;28;20074;-75
2021/11/25 09:40:27;;;;;;;44.75;24.15;;;;;;;3.53;100.00;100279.09;5072596;28;20040;-75
2021/11/25 09:42:58;;;;;;;46.20;24.77;;;;;;;3.54;100.00;100286.09;5072645;28;20079;-75
2021/11/25 09:45:30;;;;;;;44.60;23.35;;;;;;;3.54;100.00;100283.47;5072657;28;20109;-75
2021/11/25 09:48:00;;;;;;;45.17;22.70;;;;;;;3.53;100.00;100284.38;5072405;28;20093;-76
2021/11/25 09:50:30;;;;;;;45.22;23.05;;;;;;;3.53;100.00;100279.09;5072075;28;20090;-75
2021/11/25 09:53:02;;;;;;;43.00;21.52;;;;;;;3.71;100.00;100268.84;5071712;28;20127;-75
2021/11/25 09:55:32;;;;;;;43.92;22.60;;;;;;;3.66;100.00;100269.88;5072202;28;20047;-75
2021/11/25 09:58:00;;;;;;;45.13;23.35;;;;;;;3.77;100.00;100267.78;5071408;28;20056;-75
2021/11/25 10:00:32;;;;;;;42.03;22.73;;;;;;;3.94;100.00;100260.16;5071668;28;20048;-75
2021/11/25 10:03:01;;;;;;;42.75;21.83;;;;;;;4.10;100.00;100254.41;5087722;28;20057;-75
2021/11/25 10:05:29;;;;;;;46.42;24.02;;;;;;;4.07;100.00;100239.53;5072480;28;20041;-75
2021/11/25 10:07:58;;;;;;;45.33;22.00;;;;;;;4.15;100.00;100244.53;5088437;28;20132;-75
2021/11/25 10:10:28;;;;;;;47.88;23.45;;;;;;;4.15;100.00;100241.88;5072985;28;20066;-75
2021/11/25 10:12:59;;;;;;;45.88;21.25;;;;;;;4.01;100.00;100243.22;5072644;28;20040;-75
2021/11/25 10:15:35;;;;;;;44.70;23.23;;;;;;;4.28;100.00;100232.66;5073009;28;20044;-74
2021/11/25 10:18:06;;;;;;;40.58;23.02;;;;;;;4.52;100.00;100225.63;5072846;28;20044;-76
2021/11/25 10:20:39;;;;;;;44.22;22.67;;;;;;;4.57;100.00;100208.72;5072874;28;20533;-76
2021/11/25 10:23:20;;;;;;;44.50;21.88;;;;;;;4.61;100.00;100214.72;5072719;28;20051;-76
2021/11/25 10:25:55;;;;;;;41.75;21.88;;;;;;;4.65;100.00;100202.28;5073137;28;20440;-75
2021/11/25 10:28:34;;;;;;;42.75;22.15;;;;;;;4.78;100.00;100198.25;5073042;28;20051;-75
2021/11/25 10:31:07;;;;;;;43.25;21.77;;;;;;;4.74;100.00;100199.31;5072615;28;20041;-76
2021/11/25 10:33:44;;;;;;;43.45;21.83;;;;;;;4.76;100.00;100192.19;5073115;28;20040;-75
2021/11/25 10:39:07;;;;;;;45.13;22.83;;;;;;;4.80;100.00;100180.56;5065266;28;20056;-76
2021/11/25 10:41:36;;;;;;;39.65;21.17;;;;;;;4.84;100.00;100179.53;5072758;28;20043;-75
2021/11/25 10:44:11;;;;;;;42.00;23.38;;;;;;;4.89;100.00;100177.56;5072633;28;20041;-75
2021/11/25 10:46:44;;;;;;;44.03;21.70;;;;;;;4.91;100.00;100177.50;5072294;28;20071;-75
2021/11/25 10:49:13;;;;;;;42.17;21.30;;;;;;;4.99;100.00;100167.50;5072388;28;20048;-75
2021/11/25 10:51:44;;;;;;;39.80;21.65;;;;;;;5.03;100.00;100166.50;5072438;28;20449;-75
2021/11/25 10:54:15;;;;;;;44.00;22.45;;;;;;;5.16;100.00;100155.38;5074149;28;20186;-75
2021/11/25 10:56:45;;;;;;;39.40;21.45;;;;;;;5.17;100.00;100150.94;5076101;28;20402;-75
2021/11/25 10:59:17;;;;;;;41.88;22.50;;;;;;;5.32;100.00;100147.69;5076134;28;20061;-75
2021/11/25 11:01:50;;;;;;;43.35;23.55;;;;;;;5.31;100.00;100142.47;5076144;28;20040;-75
2021/11/25 11:04:22;;;;;;;43.10;22.00;;;;;;;5.28;100.00;100142.56;5076229;28;20115;-75
2021/11/25 11:06:55;;;;;;;41.95;22.67;;;;;;;5.30;100.00;100136.28;5075589;28;20056;-76
2021/11/25 11:09:33;;;;;;;41.58;22.52;;;;;;;5.32;100.00;100136.25;5075779;28;20507;-75
2021/11/25 11:12:24;;;;;;;43.55;22.55;;;;;;;5.31;100.00;100116.88;5075148;28;20044;-75
2021/11/25 11:14:55;;;;;;;42.30;22.33;;;;;;;5.33;100.00;100124.75;5075658;28;20047;-75
2021/11/25 11:17:30;;;;;;;47.70;24.30;;;;;;;5.39;100.00;100119.19;5075329;28;20401;-75
2021/11/25 11:20:11;;;;;;;43.55;23.48;;;;;;;5.27;100.00;100111.75;5075280;28;20066;-76
2021/11/25 11:22:40;;;;;;;38.40;22.40;;;;;;;5.31;100.00;100097.50;5074018;28;20058;-75
2021/11/25 11:25:09;;;;;;;38.90;21.67;;;;;;;5.43;100.00;100094.34;5074835;28;20048;-75